Time;durP1;ratioP1;P1;durP2;ratioP2;P2;SDS_P1;SDS_P2;PMS_P1;PMS_P2;Temp;Humidity;BMP_temperature;BMP_pressure;BME280_temperature;BME280_humidity;BME280_pressure;Samples;Min_cycle;Max_cycle;Signal;HPM_P1;HPM_P2
2023/03/22 00:01:52;;;;;;;1.43;1.33;;;;;8.40;95821.00;;;;5053528;28;20209;-59
2023/03/22 00:04:19;;;;;;;1.20;1.17;;;;;8.30;95818.00;;;;5054145;28;20672;-59
2023/03/22 00:06:47;;;;;;;1.20;1.20;;;;;8.20;95821.00;;;;5053366;28;20195;-59
2023/03/22 00:09:15;;;;;;;1.57;1.47;;;;;8.20;95816.00;;;;5053358;28;20316;-59
2023/03/22 00:11:42;;;;;;;0.80;0.80;;;;;8.10;95808.00;;;;5035629;28;20762;-59
2023/03/22 00:14:10;;;;;;;1.17;1.17;;;;;8.20;95814.00;;;;5053867;28;20197;-59
2023/03/22 00:16:38;;;;;;;1.30;1.23;;;;;8.10;95809.00;;;;5053494;28;20196;-59
2023/03/22 00:19:06;;;;;;;0.83;0.83;;;;;8.10;95807.00;;;;5053245;28;20192;-59
2023/03/22 00:21:33;;;;;;;0.70;0.70;;;;;8.00;95814.00;;;;5053450;28;20224;-59
2023/03/22 00:24:01;;;;;;;1.07;1.03;;;;;8.00;95820.00;;;;5053110;28;20687;-59
2023/03/22 00:26:28;;;;;;;1.00;1.00;;;;;7.90;95821.00;;;;5053090;28;20199;-60
2023/03/22 00:28:55;;;;;;;7.10;1.03;;;;;7.90;95821.00;;;;5053090;28;20554;-59
2023/03/22 00:31:23;;;;;;;0.73;0.73;;;;;7.90;95816.00;;;;5053165;28;20208;-59
2023/03/22 00:33:52;;;;;;;0.87;0.87;;;;;7.90;95816.00;;;;5052319;28;20184;-59
2023/03/22 00:36:19;;;;;;;0.50;0.50;;;;;7.90;95813.00;;;;5053018;28;20652;-59
2023/03/22 00:38:47;;;;;;;0.90;0.90;;;;;7.90;95809.00;;;;5053443;28;20195;-59
2023/03/22 00:41:15;;;;;;;0.83;0.83;;;;;7.90;95810.00;;;;5053077;28;20228;-59
2023/03/22 00:43:43;;;;;;;1.50;1.40;;;;;7.80;95804.00;;;;5034976;28;20695;-59
2023/03/22 00:46:12;;;;;;;1.30;1.20;;;;;7.70;95807.00;;;;5052935;28;20199;-59
2023/03/22 00:48:40;;;;;;;0.60;0.60;;;;;7.60;95791.00;;;;5052847;28;20192;-59
2023/03/22 00:51:09;;;;;;;0.73;0.73;;;;;7.60;95791.00;;;;5053050;28;20212;-59
2023/03/22 00:53:37;;;;;;;0.87;0.87;;;;;7.50;95783.00;;;;5052879;28;20247;-59
2023/03/22 00:56:06;;;;;;;0.93;0.93;;;;;7.50;95785.00;;;;5053116;28;20279;-59
2023/03/22 00:58:33;;;;;;;0.80;0.80;;;;;7.50;95773.00;;;;5053111;28;20196;-59
2023/03/22 01:01:01;;;;;;;0.70;0.70;;;;;7.50;95776.00;;;;5052755;28;20215;-59
2023/03/22 01:03:28;;;;;;;0.83;0.83;;;;;7.50;95776.00;;;;5052666;28;20203;-59
2023/03/22 01:05:56;;;;;;;0.70;0.70;;;;;7.40;95764.00;;;;5052749;28;20192;-59
2023/03/22 01:08:31;;;;;;;0.80;0.80;;;;;7.30;95764.00;;;;5052748;28;20195;-59
2023/03/22 01:10:59;;;;;;;0.83;0.83;;;;;7.10;95764.00;;;;5053010;28;20262;-59
2023/03/22 01:13:27;;;;;;;0.70;0.70;;;;;7.00;95750.00;;;;5052718;28;20192;-59
2023/03/22 01:15:55;;;;;;;0.60;0.60;;;;;7.10;95755.00;;;;5053228;28;20223;-59
2023/03/22 01:18:22;;;;;;;0.90;0.90;;;;;7.10;95756.00;;;;5052863;28;20556;-59
2023/03/22 01:20:50;;;;;;;0.80;0.80;;;;;7.00;95758.00;;;;5052562;28;20707;-58
2023/03/22 01:23:18;;;;;;;0.80;0.80;;;;;6.90;95746.00;;;;5034850;28;20283;-59
2023/03/22 01:25:47;;;;;;;1.00;1.00;;;;;6.80;95750.00;;;;5052827;28;20660;-58
2023/03/22 01:28:14;;;;;;;1.13;1.13;;;;;6.80;95740.00;;;;5052819;28;20201;-58
2023/03/22 01:30:42;;;;;;;1.33;1.23;;;;;6.70;95747.00;;;;5052664;28;20223;-58
2023/03/22 01:33:10;;;;;;;1.97;1.77;;;;;6.80;95748.00;;;;5052505;28;20192;-58
2023/03/22 01:35:38;;;;;;;0.90;0.90;;;;;6.90;95740.00;;;;5052517;28;20185;-58
2023/03/22 01:38:06;;;;;;;1.00;0.90;;;;;6.90;95747.00;;;;5052765;28;20188;-58
2023/03/22 01:40:34;;;;;;;1.07;1.07;;;;;6.80;95751.00;;;;5052297;28;20215;-58
2023/03/22 01:43:03;;;;;;;1.00;1.00;;;;;6.80;95746.00;;;;5053051;28;20183;-58
2023/03/22 01:45:48;;;;;;;0.73;0.73;;;;;6.70;95745.00;;;;5054792;28;20212;-58
2023/03/22 01:48:24;;;;;;;1.20;1.20;;;;;6.60;95739.00;;;;5056680;28;20216;-58
2023/03/22 01:51:05;;;;;;;0.90;0.90;;;;;6.50;95743.00;;;;5056189;28;20212;-58
2023/03/22 01:53:36;;;;;;;1.13;1.03;;;;;6.50;95745.00;;;;5055992;28;20187;-58
2023/03/22 01:56:04;;;;;;;0.60;0.60;;;;;6.50;95734.00;;;;5056261;28;20188;-58
2023/03/22 01:58:36;;;;;;;0.60;0.60;;;;;6.60;95730.00;;;;5056706;28;20250;-58
2023/03/22 02:01:05;;;;;;;0.80;0.80;;;;;6.70;95737.00;;;;5055981;28;20218;-58
2023/03/22 02:03:38;;;;;;;0.90;0.90;;;;;6.80;95736.00;;;;5056038;28;20200;-59
2023/03/22 02:06:05;;;;;;;0.67;0.67;;;;;6.70;95741.00;;;;5055751;28;20184;-58
2023/03/22 02:08:33;;;;;;;1.00;1.00;;;;;6.60;95737.00;;;;5055964;28;20211;-58
2023/03/22 02:11:01;;;;;;;0.80;0.80;;;;;6.50;95732.00;;;;5055571;28;20298;-59
2023/03/22 02:13:46;;;;;;;0.70;0.70;;;;;6.50;95729.00;;;;5037757;28;20223;-58
2023/03/22 02:16:24;;;;;;;0.60;0.60;;;;;6.40;95719.00;;;;5055938;28;20184;-58
2023/03/22 02:19:02;;;;;;;0.60;0.60;;;;;6.30;95726.00;;;;5055996;28;20263;-58
2023/03/22 02:21:56;;;;;;;0.70;0.70;;;;;6.40;95719.00;;;;5055426;28;20223;-58
2023/03/22 02:25:02;;;;;;;0.70;0.70;;;;;6.30;95722.00;;;;5055676;28;20261;-58
2023/03/22 02:27:52;;;;;;;0.70;0.70;;;;;6.20;95721.00;;;;5055876;28;20204;-58
2023/03/22 02:30:47;;;;;;;1.37;1.27;;;;;6.30;95715.00;;;;5055901;28;20235;-58
2023/03/22 02:33:50;;;;;;;1.17;1.17;;;;;6.20;95715.00;;;;5055806;28;20200;-58
2023/03/22 02:36:41;;;;;;;0.70;0.70;;;;;6.20;95705.00;;;;5033105;28;20219;-58
2023/03/22 02:39:30;;;;;;;0.80;0.80;;;;;6.20;95698.00;;;;5055461;28;20520;-58
2023/03/22 02:42:09;;;;;;;0.70;0.70;;;;;6.30;95701.00;;;;5037182;28;20239;-58
2023/03/22 02:44:42;;;;;;;0.90;0.90;;;;;6.30;95711.00;;;;5055217;28;20200;-59
2023/03/22 02:47:19;;;;;;;0.70;0.70;;;;;6.10;95718.00;;;;5055297;28;20627;-58
2023/03/22 02:49:52;;;;;;;0.90;0.90;;;;;6.10;95722.00;;;;5055476;28;20180;-58
2023/03/22 02:52:26;;;;;;;1.40;1.37;;;;;6.10;95720.00;;;;5055131;28;20697;-58
2023/03/22 02:54:59;;;;;;;0.60;0.60;;;;;6.10;95724.00;;;;5054896;28;20233;-58
2023/03/22 02:57:33;;;;;;;1.20;0.90;;;;;6.10;95725.00;;;;5054124;28;20210;-58
2023/03/22 03:00:06;;;;;;;0.93;0.93;;;;;6.00;95721.00;;;;5054747;28;20187;-58
2023/03/22 03:02:35;;;;;;;0.70;0.70;;;;;6.00;95724.00;;;;5037175;28;20192;-58
2023/03/22 03:05:04;;;;;;;1.47;1.40;;;;;6.00;95724.00;;;;5054601;28;20706;-58
2023/03/22 03:07:32;;;;;;;0.93;0.93;;;;;6.00;95714.00;;;;5036752;28;20727;-58
2023/03/22 03:10:02;;;;;;;1.00;1.00;;;;;6.00;95715.00;;;;5054501;28;20199;-58
2023/03/22 03:12:29;;;;;;;1.13;1.10;;;;;6.00;95720.00;;;;5054761;28;20665;-58
2023/03/22 03:14:57;;;;;;;0.60;0.60;;;;;5.90;95717.00;;;;5036493;28;20266;-59
2023/03/22 03:17:38;;;;;;;1.53;1.43;;;;;5.90;95717.00;;;;5055159;28;20199;-59
2023/03/22 03:20:23;;;;;;;0.97;0.73;;;;;5.90;95722.00;;;;5054361;28;20538;-59
2023/03/22 03:23:07;;;;;;;0.80;0.80;;;;;5.80;95716.00;;;;5054355;28;20180;-59
2023/03/22 03:25:42;;;;;;;0.80;0.80;;;;;5.80;95716.00;;;;5054738;28;20258;-58
2023/03/22 03:28:16;;;;;;;0.50;0.50;;;;;5.80;95706.00;;;;5054259;28;20194;-58
2023/03/22 03:30:50;;;;;;;1.00;1.00;;;;;5.70;95702.00;;;;5054139;28;20217;-59
2023/03/22 03:33:21;;;;;;;1.30;1.30;;;;;5.60;95716.00;;;;5054692;28;20191;-58
2023/03/22 03:35:53;;;;;;;1.03;1.03;;;;;5.60;95714.00;;;;5054067;28;20172;-57
2023/03/22 03:38:25;;;;;;;0.70;0.70;;;;;5.70;95718.00;;;;5054334;28;20188;-57
2023/03/22 03:40:58;;;;;;;1.17;1.17;;;;;5.80;95715.00;;;;5053917;28;20215;-57
2023/03/22 03:43:26;;;;;;;1.27;1.17;;;;;5.80;95717.00;;;;5053843;28;20188;-57
2023/03/22 03:45:55;;;;;;;1.00;1.00;;;;;5.70;95714.00;;;;5054022;28;20269;-58
2023/03/22 03:48:24;;;;;;;0.73;0.73;;;;;5.70;95717.00;;;;5054080;28;20202;-58
2023/03/22 03:50:54;;;;;;;1.30;1.20;;;;;5.70;95709.00;;;;5053701;28;20213;-58
2023/03/22 03:53:21;;;;;;;1.30;1.20;;;;;5.70;95723.00;;;;5053775;28;20199;-61
2023/03/22 03:55:49;;;;;;;1.10;1.10;;;;;5.70;95714.00;;;;5053985;28;20191;-58
2023/03/22 03:58:17;;;;;;;0.97;0.97;;;;;5.60;95724.00;;;;5053641;28;20203;-58
2023/03/22 04:00:45;;;;;;;0.90;0.90;;;;;5.60;95715.00;;;;5053487;28;20212;-58
2023/03/22 04:03:14;;;;;;;0.80;0.80;;;;;5.60;95708.00;;;;5036471;28;20206;-58
2023/03/22 04:05:41;;;;;;;1.70;1.53;;;;;5.50;95705.00;;;;5035687;28;20221;-58
2023/03/22 04:08:09;;;;;;;0.80;0.80;;;;;5.50;95701.00;;;;5053226;28;20202;-57
2023/03/22 04:10:36;;;;;;;0.80;0.80;;;;;5.40;95702.00;;;;5053952;28;20224;-58
2023/03/22 04:13:04;;;;;;;1.37;1.37;;;;;5.40;95701.00;;;;5053575;28;20654;-58
2023/03/22 04:15:33;;;;;;;0.80;0.80;;;;;5.40;95684.00;;;;5053298;28;20202;-58
2023/03/22 04:18:00;;;;;;;1.00;1.00;;;;;5.40;95682.00;;;;5053278;28;20195;-58
2023/03/22 04:20:28;;;;;;;1.10;1.10;;;;;5.60;95697.00;;;;5053190;28;20220;-58
2023/03/22 04:22:56;;;;;;;0.60;0.60;;;;;5.30;95696.00;;;;5053218;28;20202;-58
2023/03/22 04:25:29;;;;;;;0.60;0.60;;;;;5.30;95686.00;;;;5053164;28;20776;-59
2023/03/22 04:27:59;;;;;;;1.53;1.40;;;;;5.40;95692.00;;;;5053173;28;20269;-58
2023/03/22 04:30:26;;;;;;;1.17;1.07;;;;;5.40;95693.00;;;;5053078;28;20238;-58
2023/03/22 04:32:55;;;;;;;0.60;0.60;;;;;5.40;95693.00;;;;5053317;28;20202;-59
2023/03/22 04:35:23;;;;;;;1.33;1.23;;;;;5.40;95689.00;;;;5053088;28;20202;-58
2023/03/22 04:37:50;;;;;;;0.50;0.50;;;;;5.30;95694.00;;;;5053024;28;20667;-58
2023/03/22 04:40:19;;;;;;;1.10;1.10;;;;;5.30;95677.00;;;;5052978;28;20221;-59
2023/03/22 04:42:47;;;;;;;0.70;0.70;;;;;5.30;95687.00;;;;5081873;22;20235;-58
2023/03/22 04:45:15;;;;;;;1.40;1.30;;;;;5.40;95679.00;;;;5072902;28;20211;-59
2023/03/22 04:47:42;;;;;;;0.87;0.87;;;;;5.30;95690.00;;;;5073298;28;20183;-59
2023/03/22 04:50:11;;;;;;;1.13;1.07;;;;;5.30;95684.00;;;;5072965;28;20726;-58
2023/03/22 04:52:39;;;;;;;1.10;1.10;;;;;5.30;95687.00;;;;5072818;28;20238;-58
2023/03/22 04:55:07;;;;;;;0.70;0.70;;;;;5.30;95674.00;;;;5073229;28;20189;-58
2023/03/22 04:57:35;;;;;;;0.87;0.87;;;;;5.30;95678.00;;;;5072920;28;20712;-59
2023/03/22 05:00:05;;;;;;;0.80;0.80;;;;;5.20;95676.00;;;;5072897;28;20191;-60
2023/03/22 05:02:32;;;;;;;0.97;0.97;;;;;5.20;95670.00;;;;5072795;28;20222;-58
2023/03/22 05:05:00;;;;;;;0.70;0.70;;;;;5.30;95666.00;;;;5072766;28;20222;-59
2023/03/22 05:07:29;;;;;;;0.80;0.80;;;;;5.30;95664.00;;;;5072877;28;20195;-58
2023/03/22 05:09:56;;;;;;;2.30;0.70;;;;;5.30;95664.00;;;;5073374;28;20284;-58
2023/03/22 05:12:24;;;;;;;1.13;1.07;;;;;5.30;95659.00;;;;5073423;28;20223;-59
2023/03/22 05:14:51;;;;;;;1.13;0.97;;;;;5.30;95665.00;;;;5073155;28;20681;-58
2023/03/22 05:17:19;;;;;;;0.80;0.80;;;;;5.20;95664.00;;;;5073307;28;20287;-58
2023/03/22 05:19:47;;;;;;;0.80;0.80;;;;;5.20;95658.00;;;;5074304;28;20667;-59
2023/03/22 05:22:14;;;;;;;0.90;0.90;;;;;5.20;95660.00;;;;5076802;28;20665;-58
2023/03/22 05:24:43;;;;;;;1.23;1.23;;;;;5.00;95652.00;;;;5076730;28;20569;-60
2023/03/22 05:27:13;;;;;;;0.60;0.60;;;;;5.00;95647.00;;;;5076485;28;20204;-58
2023/03/22 05:29:43;;;;;;;1.07;1.07;;;;;4.90;95648.00;;;;5076441;28;20204;-58
2023/03/22 05:32:11;;;;;;;1.37;1.27;;;;;5.00;95655.00;;;;5076740;28;20223;-59
2023/03/22 05:34:41;;;;;;;0.80;0.80;;;;;5.10;95653.00;;;;5076538;28;20250;-59
2023/03/22 05:37:09;;;;;;;0.90;0.90;;;;;5.00;95655.00;;;;5076512;28;20191;-60
2023/03/22 05:39:36;;;;;;;1.00;1.00;;;;;5.10;95657.00;;;;5076260;28;20198;-59
2023/03/22 05:42:05;;;;;;;2.67;2.47;;;;;5.20;95660.00;;;;5076223;28;20226;-59
2023/03/22 05:44:32;;;;;;;3.90;2.03;;;;;5.30;95665.00;;;;5076388;28;20598;-58
2023/03/22 05:47:00;;;;;;;0.90;0.90;;;;;5.40;95661.00;;;;5076231;28;20222;-59
2023/03/22 05:49:27;;;;;;;0.73;0.73;;;;;5.40;95664.00;;;;5076602;28;20255;-59
2023/03/22 05:51:55;;;;;;;1.00;1.00;;;;;5.40;95661.00;;;;5076267;28;20218;-59
2023/03/22 05:54:22;;;;;;;0.73;0.73;;;;;5.40;95660.00;;;;5075972;28;20196;-59
2023/03/22 05:56:50;;;;;;;1.67;1.57;;;;;5.30;95667.00;;;;5076021;28;20188;-59
2023/03/22 05:59:19;;;;;;;1.27;1.27;;;;;5.30;95668.00;;;;5075643;28;20213;-59
2023/03/22 06:01:47;;;;;;;0.70;0.70;;;;;5.30;95672.00;;;;5075874;28;20219;-59
2023/03/22 06:04:14;;;;;;;0.90;0.90;;;;;5.40;95675.00;;;;5076085;28;20184;-58
2023/03/22 06:06:42;;;;;;;0.70;0.70;;;;;5.40;95669.00;;;;5075690;28;20219;-60
2023/03/22 06:09:09;;;;;;;0.93;0.93;;;;;5.40;95680.00;;;;5075687;28;20198;-59
2023/03/22 06:11:37;;;;;;;0.70;0.70;;;;;5.50;95681.00;;;;5075572;28;20236;-58
2023/03/22 06:14:04;;;;;;;0.70;0.70;;;;;5.60;95686.00;;;;5075668;28;20191;-60
2023/03/22 06:16:33;;;;;;;0.60;0.60;;;;;5.70;95684.00;;;;5076102;28;20194;-58
2023/03/22 06:19:00;;;;;;;22.13;1.20;;;;;5.80;95679.00;;;;5075480;28;20692;-59
2023/03/22 06:21:28;;;;;;;0.70;0.70;;;;;5.80;95676.00;;;;5075461;28;20217;-59
2023/03/22 06:23:55;;;;;;;0.90;0.90;;;;;5.80;95678.00;;;;5075698;28;20183;-59
2023/03/22 06:26:23;;;;;;;0.93;0.93;;;;;5.80;95684.00;;;;5075531;28;20222;-58
2023/03/22 06:28:50;;;;;;;0.70;0.70;;;;;6.00;95683.00;;;;5075401;28;20199;-59
2023/03/22 06:31:17;;;;;;;0.63;0.63;;;;;6.00;95686.00;;;;5075221;28;20267;-58
2023/03/22 06:33:46;;;;;;;1.00;1.00;;;;;6.20;95693.00;;;;5075266;28;20194;-58
2023/03/22 06:36:14;;;;;;;1.30;1.20;;;;;6.20;95687.00;;;;5075528;28;20549;-58
2023/03/22 06:38:41;;;;;;;0.73;0.73;;;;;6.30;95689.00;;;;5075522;28;20195;-58
2023/03/22 06:41:09;;;;;;;0.60;0.60;;;;;6.40;95687.00;;;;5075467;28;20211;-58
2023/03/22 06:43:36;;;;;;;0.67;0.67;;;;;6.50;95684.00;;;;5075204;28;20207;-58
2023/03/22 06:46:04;;;;;;;1.10;1.10;;;;;6.60;95686.00;;;;5075033;28;20214;-59
2023/03/22 06:48:31;;;;;;;1.53;1.47;;;;;6.70;95678.00;;;;5074587;28;20194;-60
2023/03/22 06:51:00;;;;;;;0.90;0.90;;;;;6.90;95685.00;;;;5068626;28;20268;-62
2023/03/22 06:53:28;;;;;;;0.80;0.80;;;;;7.10;95683.00;;;;5072365;28;20274;-62
2023/03/22 06:55:55;;;;;;;3.50;2.10;;;;;7.30;95684.00;;;;5072835;28;20225;-58
2023/03/22 06:58:23;;;;;;;0.73;0.73;;;;;7.50;95686.00;;;;5071917;28;20206;-60
2023/03/22 07:00:50;;;;;;;0.80;0.80;;;;;7.70;95685.00;;;;5070660;28;20199;-59
2023/03/22 07:03:18;;;;;;;3.13;2.87;;;;;7.80;95671.00;;;;5070968;28;20205;-59
2023/03/22 07:05:45;;;;;;;1.03;1.03;;;;;7.80;95682.00;;;;5072859;28;20215;-58
2023/03/22 07:08:14;;;;;;;0.70;0.70;;;;;7.90;95676.00;;;;5072139;28;20203;-58
2023/03/22 07:10:43;;;;;;;0.80;0.80;;;;;8.00;95675.00;;;;5072793;28;20199;-59
2023/03/22 07:13:11;;;;;;;0.60;0.60;;;;;8.00;95683.00;;;;5071054;28;20298;-59
2023/03/22 07:15:38;;;;;;;0.70;0.70;;;;;8.10;95679.00;;;;5072435;28;20202;-60
2023/03/22 07:18:06;;;;;;;0.87;0.87;;;;;8.10;95680.00;;;;5072389;28;20199;-60
2023/03/22 07:20:35;;;;;;;4.23;1.00;;;;;8.10;95676.00;;;;5072448;28;20609;-58
2023/03/22 07:23:03;;;;;;;2.30;1.10;;;;;8.20;95674.00;;;;5071740;28;20563;-59
2023/03/22 07:25:31;;;;;;;2.10;1.80;;;;;8.30;95672.00;;;;5071777;28;20673;-59
2023/03/22 07:28:00;;;;;;;0.67;0.67;;;;;8.50;95674.00;;;;5072243;28;20249;-59
2023/03/22 07:30:28;;;;;;;1.20;1.20;;;;;8.70;95672.00;;;;5072161;28;20264;-59
2023/03/22 07:32:55;;;;;;;0.60;0.60;;;;;8.80;95663.00;;;;5071010;28;20628;-59
2023/03/22 07:35:22;;;;;;;0.80;0.80;;;;;9.00;95672.00;;;;5071178;28;20658;-58
2023/03/22 07:37:51;;;;;;;0.93;0.93;;;;;9.10;95674.00;;;;5071957;28;20199;-59
2023/03/22 07:40:19;;;;;;;0.70;0.70;;;;;9.20;95675.00;;;;5072233;28;20234;-59
2023/03/22 07:42:49;;;;;;;0.80;0.80;;;;;9.30;95685.00;;;;5070622;28;20763;-59
2023/03/22 07:45:18;;;;;;;0.67;0.67;;;;;9.40;95673.00;;;;5070883;28;20219;-59
2023/03/22 07:47:45;;;;;;;0.80;0.80;;;;;9.50;95672.00;;;;5071566;28;20219;-60
2023/03/22 07:50:14;;;;;;;0.67;0.67;;;;;9.60;95681.00;;;;5070480;28;20196;-59
2023/03/22 07:52:41;;;;;;;0.93;0.93;;;;;9.50;95678.00;;;;5071069;28;20223;-59
2023/03/22 07:55:11;;;;;;;0.90;0.90;;;;;9.70;95671.00;;;;5071633;28;20200;-59
2023/03/22 07:57:39;;;;;;;0.80;0.80;;;;;9.90;95679.00;;;;5070792;28;20199;-60
2023/03/22 08:00:10;;;;;;;0.90;0.90;;;;;9.80;95681.00;;;;5071617;28;20272;-60
2023/03/22 08:02:38;;;;;;;0.70;0.70;;;;;10.10;95682.00;;;;5070999;28;20695;-60
2023/03/22 08:05:07;;;;;;;0.50;0.50;;;;;10.00;95681.00;;;;5071862;28;20226;-62
2023/03/22 08:07:34;;;;;;;0.60;0.60;;;;;10.20;95667.00;;;;5070930;28;20215;-60
2023/03/22 08:10:02;;;;;;;0.70;0.70;;;;;10.30;95672.00;;;;5071719;28;20263;-59
2023/03/22 08:12:31;;;;;;;0.57;0.57;;;;;10.50;95668.00;;;;5070948;28;20215;-59
2023/03/22 08:14:58;;;;;;;0.70;0.70;;;;;10.80;95674.00;;;;5070611;28;20199;-59
2023/03/22 08:17:28;;;;;;;1.10;1.10;;;;;10.90;95673.00;;;;5071294;28;20191;-59
2023/03/22 08:19:56;;;;;;;0.60;0.60;;;;;11.10;95685.00;;;;5070360;28;20214;-59
2023/03/22 08:22:24;;;;;;;0.60;0.60;;;;;11.10;95675.00;;;;5070824;28;20307;-59
2023/03/22 08:24:52;;;;;;;0.83;0.83;;;;;11.00;95682.00;;;;5071138;28;20203;-59
2023/03/22 08:27:21;;;;;;;2.00;1.53;;;;;11.20;95680.00;;;;5071150;28;20282;-59
2023/03/22 08:29:48;;;;;;;0.50;0.50;;;;;11.40;95680.00;;;;5071237;28;20313;-60
2023/03/22 08:32:16;;;;;;;0.60;0.60;;;;;11.50;95673.00;;;;5071430;28;20243;-59
2023/03/22 08:34:45;;;;;;;0.80;0.80;;;;;11.40;95672.00;;;;5071111;28;20241;-60
2023/03/22 08:37:13;;;;;;;0.63;0.63;;;;;11.70;95661.00;;;;5069948;28;20191;-60
2023/03/22 08:39:40;;;;;;;0.53;0.53;;;;;11.80;95668.00;;;;5071694;28;20192;-60
2023/03/22 08:42:09;;;;;;;0.60;0.60;;;;;11.90;95663.00;;;;5070971;28;20223;-59
2023/03/22 08:44:36;;;;;;;0.50;0.50;;;;;11.80;95659.00;;;;5071421;28;20195;-59
2023/03/22 08:47:04;;;;;;;0.50;0.50;;;;;11.80;95657.00;;;;5071203;28;20246;-59
2023/03/22 08:49:32;;;;;;;0.60;0.60;;;;;12.30;95660.00;;;;5070787;28;20191;-60
2023/03/22 08:52:00;;;;;;;0.80;0.80;;;;;12.10;95662.00;;;;5070893;28;20226;-59
2023/03/22 08:54:31;;;;;;;0.60;0.60;;;;;12.30;95662.00;;;;5071869;28;20257;-59
2023/03/22 08:56:59;;;;;;;0.57;0.57;;;;;12.30;95661.00;;;;5074802;28;20219;-59
2023/03/22 08:59:27;;;;;;;0.60;0.60;;;;;12.40;95658.00;;;;5073984;28;20191;-59
2023/03/22 09:01:54;;;;;;;0.80;0.80;;;;;12.70;95659.00;;;;5074179;28;20686;-59
2023/03/22 09:04:22;;;;;;;0.77;0.77;;;;;12.50;95644.00;;;;5074860;28;20203;-59
2023/03/22 09:06:49;;;;;;;0.83;0.83;;;;;12.50;95640.00;;;;5073260;28;20745;-60
2023/03/22 09:09:18;;;;;;;0.90;0.90;;;;;12.70;95646.00;;;;5073374;28;20252;-59
2023/03/22 09:11:46;;;;;;;0.60;0.60;;;;;13.00;95642.00;;;;5074558;28;20222;-60
2023/03/22 09:14:13;;;;;;;0.60;0.60;;;;;13.40;95650.00;;;;5074772;28;20196;-60
2023/03/22 09:16:41;;;;;;;0.60;0.60;;;;;13.30;95641.00;;;;5074881;28;20654;-59
2023/03/22 09:19:09;;;;;;;0.60;0.60;;;;;13.20;95637.00;;;;5072811;28;20206;-59
2023/03/22 09:21:36;;;;;;;0.60;0.60;;;;;13.60;95644.00;;;;5073680;28;20269;-59
2023/03/22 09:24:04;;;;;;;1.07;1.07;;;;;13.00;95634.00;;;;5074500;28;20198;-59
2023/03/22 09:26:33;;;;;;;0.50;0.50;;;;;13.20;95642.00;;;;5074179;28;20220;-59
2023/03/22 09:29:00;;;;;;;0.60;0.60;;;;;13.40;95643.00;;;;5074377;28;20195;-59
2023/03/22 09:31:28;;;;;;;0.87;0.87;;;;;13.50;95631.00;;;;5074344;28;20290;-59
2023/03/22 09:33:55;;;;;;;0.60;0.60;;;;;13.40;95638.00;;;;5074265;28;20200;-59
2023/03/22 09:36:22;;;;;;;0.80;0.80;;;;;13.70;95634.00;;;;5074255;28;20195;-59
2023/03/22 09:38:50;;;;;;;0.60;0.60;;;;;13.80;95636.00;;;;5073975;28;20204;-59
2023/03/22 09:41:21;;;;;;;0.50;0.50;;;;;13.90;95634.00;;;;5073906;28;20258;-59
2023/03/22 09:43:54;;;;;;;0.40;0.40;;;;;13.90;95620.00;;;;5074057;28;20202;-60
2023/03/22 09:46:28;;;;;;;0.50;0.50;;;;;14.00;95631.00;;;;5073931;28;20187;-59
2023/03/22 09:48:57;;;;;;;0.57;0.57;;;;;14.10;95629.00;;;;5073632;28;20191;-59
2023/03/22 09:51:37;;;;;;;0.50;0.50;;;;;14.40;95620.00;;;;5073823;28;20215;-59
2023/03/22 09:54:11;;;;;;;0.60;0.60;;;;;14.30;95628.00;;;;5070697;28;20209;-59
2023/03/22 09:56:39;;;;;;;0.50;0.50;;;;;14.60;95619.00;;;;5073383;28;20191;-60
2023/03/22 09:59:16;;;;;;;0.50;0.50;;;;;14.70;95626.00;;;;5073001;28;20195;-60
2023/03/22 10:01:48;;;;;;;0.70;0.70;;;;;14.70;95614.00;;;;5072979;28;20229;-59
2023/03/22 10:04:32;;;;;;;0.50;0.50;;;;;14.70;95616.00;;;;5073248;28;20192;-60
2023/03/22 10:07:06;;;;;;;0.60;0.60;;;;;14.70;95614.00;;;;5069294;28;20705;-60
2023/03/22 10:09:39;;;;;;;0.53;0.53;;;;;14.40;95611.00;;;;5073891;28;20713;-59
2023/03/22 10:12:16;;;;;;;0.63;0.63;;;;;14.80;95605.00;;;;5073859;28;20635;-60
2023/03/22 10:14:48;;;;;;;0.70;0.70;;;;;15.10;95611.00;;;;5073756;28;20621;-60
2023/03/22 10:17:22;;;;;;;0.50;0.50;;;;;15.20;95600.00;;;;5073665;28;20184;-60
2023/03/22 10:19:54;;;;;;;0.60;0.60;;;;;15.20;95587.00;;;;5069237;28;20233;-60
2023/03/22 10:22:28;;;;;;;0.60;0.60;;;;;15.20;95594.00;;;;5073687;28;20215;-60
2023/03/22 10:24:57;;;;;;;0.70;0.70;;;;;15.20;95592.00;;;;5071896;28;20535;-60
2023/03/22 10:27:28;;;;;;;0.57;0.57;;;;;15.50;95592.00;;;;5073268;28;20690;-60
2023/03/22 10:30:02;;;;;;;0.40;0.40;;;;;15.60;95591.00;;;;5072370;28;20203;-60
2023/03/22 10:32:36;;;;;;;0.60;0.60;;;;;15.50;95585.00;;;;5073068;28;20212;-59
2023/03/22 10:35:03;;;;;;;0.50;0.50;;;;;15.70;95582.00;;;;5072434;28;20527;-61
2023/03/22 10:37:33;;;;;;;0.50;0.50;;;;;15.60;95601.00;;;;5073438;28;20199;-60
2023/03/22 10:40:06;;;;;;;0.53;0.53;;;;;16.00;95572.00;;;;5072732;28;20658;-60
2023/03/22 10:42:37;;;;;;;0.40;0.40;;;;;16.10;95588.00;;;;5068868;28;20645;-60
2023/03/22 10:45:12;;;;;;;0.60;0.60;;;;;16.00;95578.00;;;;5077561;22;20698;-68
2023/03/22 10:47:44;;;;;;;0.53;0.53;;;;;16.30;95580.00;;;;5032990;28;20219;-67
2023/03/22 10:50:16;;;;;;;0.60;0.60;;;;;16.10;95595.00;;;;5033056;28;20702;-67
2023/03/22 10:52:51;;;;;;;0.80;0.80;;;;;15.60;95591.00;;;;5031722;28;20656;-67
2023/03/22 10:55:18;;;;;;;0.53;0.53;;;;;15.70;95579.00;;;;5032936;28;20286;-66
2023/03/22 10:57:56;;;;;;;0.67;0.67;;;;;16.00;95578.00;;;;5031763;28;20206;-67
2023/03/22 11:00:27;;;;;;;0.60;0.60;;;;;16.30;95567.00;;;;5031587;28;20200;-67
2023/03/22 11:03:00;;;;;;;1.03;0.93;;;;;16.80;95573.00;;;;5032816;28;20189;-67
2023/03/22 11:05:29;;;;;;;0.67;0.67;;;;;17.30;95574.00;;;;5046953;28;20220;-67
2023/03/22 11:07:58;;;;;;;0.40;0.40;;;;;17.00;95574.00;;;;5051585;28;20224;-67
2023/03/22 11:10:31;;;;;;;0.50;0.50;;;;;17.20;95558.00;;;;5053024;28;20618;-67
2023/03/22 11:13:16;;;;;;;0.50;0.50;;;;;17.20;95572.00;;;;5052636;28;20250;-67
2023/03/22 11:15:54;;;;;;;0.63;0.63;;;;;16.60;95586.00;;;;5028796;28;20220;-68
2023/03/22 11:18:22;;;;;;;0.60;0.60;;;;;16.10;95579.00;;;;5031924;28;20188;-67
2023/03/22 11:20:59;;;;;;;0.60;0.60;;;;;16.40;95582.00;;;;5032700;28;20236;-67
2023/03/22 11:23:28;;;;;;;0.50;0.50;;;;;15.80;95593.00;;;;5032564;28;20188;-67
2023/03/22 11:25:59;;;;;;;0.90;0.90;;;;;16.40;95586.00;;;;5032561;28;20577;-67
2023/03/22 11:28:32;;;;;;;0.50;0.50;;;;;17.00;95584.00;;;;5032358;28;20201;-68
2023/03/22 11:31:11;;;;;;;0.50;0.50;;;;;16.40;95576.00;;;;5026768;28;20201;-67
2023/03/22 11:33:45;;;;;;;0.50;0.50;;;;;16.40;95570.00;;;;5033067;28;20209;-67
2023/03/22 11:36:17;;;;;;;0.60;0.60;;;;;16.50;95577.00;;;;5031988;28;20213;-67
2023/03/22 11:38:45;;;;;;;0.60;0.60;;;;;16.90;95560.00;;;;5031634;28;20619;-67
2023/03/22 11:41:20;;;;;;;0.70;0.70;;;;;17.40;95568.00;;;;5030922;28;20213;-67
2023/03/22 11:43:52;;;;;;;0.50;0.50;;;;;17.70;95568.00;;;;5032266;28;20189;-67
2023/03/22 11:46:22;;;;;;;0.60;0.60;;;;;17.60;95558.00;;;;5031984;28;20236;-68
2023/03/22 11:48:51;;;;;;;0.70;0.70;;;;;17.60;95566.00;;;;5027591;28;20221;-68
2023/03/22 11:51:28;;;;;;;0.60;0.60;;;;;17.80;95558.00;;;;5045676;28;20690;-68
2023/03/22 11:54:01;;;;;;;0.50;0.50;;;;;17.70;95560.00;;;;5051629;28;20184;-66
2023/03/22 11:56:30;;;;;;;0.50;0.50;;;;;17.30;95562.00;;;;5051258;28;20219;-67
2023/03/22 11:59:02;;;;;;;6.90;1.33;;;;;17.30;95566.00;;;;5052110;28;20581;-66
2023/03/22 12:01:46;;;;;;;0.60;0.60;;;;;17.40;95560.00;;;;5043607;28;20227;-65
2023/03/22 12:04:17;;;;;;;0.50;0.50;;;;;17.40;95552.00;;;;5031951;28;20185;-64
2023/03/22 12:06:47;;;;;;;0.40;0.40;;;;;17.90;95544.00;;;;5030735;28;20224;-61
2023/03/22 12:09:25;;;;;;;0.50;0.50;;;;;17.50;95550.00;;;;5031703;28;20691;-66
2023/03/22 12:11:57;;;;;;;0.80;0.80;;;;;16.70;95552.00;;;;5031977;28;20196;-69
2023/03/22 12:14:28;;;;;;;0.50;0.50;;;;;16.50;95552.00;;;;5031973;28;20197;-67
2023/03/22 12:17:01;;;;;;;0.50;0.50;;;;;17.50;95553.00;;;;5030466;28;20193;-66
2023/03/22 12:19:44;;;;;;;0.50;0.50;;;;;17.80;95536.00;;;;5031855;28;20193;-67
2023/03/22 12:22:13;;;;;;;1.13;1.13;;;;;18.00;95541.00;;;;5031489;28;20213;-66
2023/03/22 12:24:41;;;;;;;0.60;0.60;;;;;18.10;95530.00;;;;5031732;28;20231;-67
2023/03/22 12:27:16;;;;;;;0.50;0.50;;;;;18.40;95534.00;;;;5029736;28;20197;-67
2023/03/22 12:29:50;;;;;;;0.50;0.50;;;;;18.40;95539.00;;;;5031193;28;20656;-67
2023/03/22 12:32:25;;;;;;;0.67;0.67;;;;;18.00;95531.00;;;;5030105;28;20262;-67
2023/03/22 12:34:53;;;;;;;0.53;0.53;;;;;18.60;95536.00;;;;5031616;28;20586;-67
2023/03/22 12:37:24;;;;;;;0.70;0.70;;;;;18.70;95538.00;;;;5031666;28;20242;-67
2023/03/22 12:39:58;;;;;;;0.60;0.60;;;;;18.60;95527.00;;;;5040719;28;20192;-68